Time;durP1;ratioP1;P1;durP2;ratioP2;P2;SDS_P1;SDS_P2;PMS_P1;PMS_P2;Temp;Humidity;BMP_temperature;BMP_pressure;BME280_temperature;BME280_humidity;BME280_pressure;Samples;Min_cycle;Max_cycle;Signal;HPM_P1;HPM_P2
2023/08/24 00:05:26;;;;;;;;;;;;;;;20.05;80.76;101955.16;20433093;28;19931;-60
2023/08/24 00:15:48;;;;;;;;;;;;;;;20.04;81.16;101945.53;20431548;28;19926;-60
2023/08/24 00:26:09;;;;;;;;;;;;;;;19.97;81.62;101941.53;20416226;28;19931;-61
2023/08/24 00:36:31;;;;;;;;;;;;;;;19.88;81.85;101944.63;20430408;28;19934;-61
2023/08/24 00:46:53;;;;;;;;;;;;;;;19.83;82.29;101939.59;20452404;28;19927;-61
2023/08/24 00:57:15;;;;;;;;;;;;;;;19.72;82.02;101943.72;20430802;28;20531;-61
2023/08/24 01:07:38;;;;;;;;;;;;;;;19.57;82.78;101941.84;20456826;28;19941;-60
2023/08/24 01:18:03;;;;;;;;;;;;;;;19.42;83.98;101926.81;20439720;28;19945;-61
2023/08/24 01:28:25;;;;;;;;;;;;;;;19.29;83.72;101936.19;20438414;28;20021;-61
2023/08/24 01:38:53;;;;;;;;;;;;;;;19.08;85.07;101928.41;20436873;28;19927;-60
2023/08/24 01:49:16;;;;;;;;;;;;;;;19.00;84.79;101930.56;20459673;28;20086;-59
2023/08/24 01:59:37;;;;;;;;;;;;;;;18.85;86.21;101930.44;20434323;28;20008;-61
2023/08/24 02:09:59;;;;;;;;;;;;;;;18.79;86.25;101915.81;20363407;28;1831595;-62
2023/08/24 02:20:20;;;;;;;;;;;;;;;18.84;85.67;101923.50;20453447;28;19935;-60
2023/08/24 02:30:42;;;;;;;;;;;;;;;18.80;86.51;101912.28;20436456;28;20276;-61
2023/08/24 02:41:04;;;;;;;;;;;;;;;18.78;87.16;101876.56;20425337;28;20395;-61
2023/08/24 02:51:26;;;;;;;;;;;;;;;18.78;87.25;101871.31;20441396;28;19938;-60
2023/08/24 03:01:48;;;;;;;;;;;;;;;18.77;87.57;101853.88;20438553;28;19978;-60
2023/08/24 03:12:10;;;;;;;;;;;;;;;18.77;87.38;101867.81;20428325;28;19927;-60
2023/08/24 03:22:31;;;;;;;;;;;;;;;18.77;87.33;101872.25;20445853;28;20022;-59
2023/08/24 03:32:53;;;;;;;;;;;;;;;18.76;87.41;101871.38;20443598;28;19926;-60
2023/08/24 03:43:14;;;;;;;;;;;;;;;18.76;86.90;101874.00;20433914;28;20025;-60
2023/08/24 03:53:35;;;;;;;;;;;;;;;18.71;86.90;101878.63;20431866;28;19930;-60
2023/08/24 04:03:57;;;;;;;;;;;;;;;18.66;87.05;101866.66;20434715;28;19926;-60
2023/08/24 04:14:22;;;;;;;;;;;;;;;18.65;87.28;101876.28;20420780;28;20045;-60
2023/08/24 04:24:43;;;;;;;;;;;;;;;18.69;88.51;101862.13;20424967;28;20444;-60
2023/08/24 04:35:05;;;;;;;;;;;;;;;18.69;88.55;101856.88;20437855;28;19941;-62
2023/08/24 04:45:27;;;;;;;;;;;;;;;18.68;88.66;101867.44;20444687;28;19938;-60
2023/08/24 04:55:48;;;;;;;;;;;;;;;18.62;88.02;101886.94;20433373;28;20395;-60
2023/08/24 05:06:09;;;;;;;;;;;;;;;18.64;89.20;101889.47;20432076;28;19931;-60
2023/08/24 05:16:31;;;;;;;;;;;;;;;18.72;88.98;101879.47;20421090;28;22619;-60
2023/08/24 05:26:52;;;;;;;;;;;;;;;18.77;89.44;101869.63;20427666;28;19926;-60
2023/08/24 05:37:14;;;;;;;;;;;;;;;18.74;90.08;101849.63;20439634;28;19930;-60
2023/08/24 05:47:35;;;;;;;;;;;;;;;18.74;89.38;101852.25;20449478;28;19954;-60
2023/08/24 05:57:57;;;;;;;;;;;;;;;18.77;89.92;101870.44;20440937;28;19926;-61
2023/08/24 06:08:18;;;;;;;;;;;;;;;18.96;89.57;101858.16;20438655;28;19941;-59
2023/08/24 06:18:40;;;;;;;;;;;;;;;19.09;86.86;101845.31;20469169;28;20008;-61
2023/08/24 06:29:01;;;;;;;;;;;;;;;19.16;87.99;101843.22;20443595;28;19939;-60
2023/08/24 06:39:24;;;;;;;;;;;;;;;19.31;87.13;101824.09;20432025;28;20284;-60
2023/08/24 06:49:46;;;;;;;;;;;;;;;19.54;85.96;101816.78;20453703;28;19930;-60
2023/08/24 07:00:08;;;;;;;;;;;;;;;19.78;83.87;101819.91;20476804;28;20019;-60
2023/08/24 07:10:30;;;;;;;;;;;;;;;19.91;84.17;101802.56;20442957;28;19927;-60
2023/08/24 07:20:52;;;;;;;;;;;;;;;20.00;85.05;101775.81;20448231;28;20318;-60
2023/08/24 07:31:13;;;;;;;;;;;;;;;20.10;84.64;101763.00;20451345;28;19926;-61
2023/08/24 07:41:35;;;;;;;;;;;;;;;20.32;83.27;101742.53;20443663;28;19930;-61
2023/08/24 07:51:57;;;;;;;;;;;;;;;20.41;82.84;101745.50;20460967;28;19938;-61
2023/08/24 08:02:18;;;;;;;;;;;;;;;20.47;82.23;101736.44;20452153;28;19937;-60
2023/08/24 08:12:40;;;;;;;;;;;;;;;20.59;81.70;101741.84;20460939;28;20111;-61
2023/08/24 08:23:01;;;;;;;;;;;;;;;20.77;80.92;101740.78;20446208;28;20320;-61
2023/08/24 08:33:24;;;;;;;;;;;;;;;20.94;79.14;101748.56;20455922;28;20387;-61
2023/08/24 08:43:46;;;;;;;;;;;;;;;21.32;77.54;101738.41;20440885;28;20510;-60
2023/08/24 08:54:07;;;;;;;;;;;;;;;21.55;76.63;101732.63;20435753;28;19933;-60
2023/08/24 09:04:29;;;;;;;;;;;;;;;21.77;76.44;101708.41;20447196;28;19974;-60
2023/08/24 09:14:51;;;;;;;;;;;;;;;21.92;77.41;101707.50;20423420;28;19934;-59
2023/08/24 09:25:12;;;;;;;;;;;;;;;22.24;74.95;101702.78;20426057;28;19938;-59
2023/08/24 09:35:38;;;;;;;;;;;;;;;22.35;76.30;101671.28;20440107;28;19926;-59
2023/08/24 09:45:59;;;;;;;;;;;;;;;22.61;76.40;101637.00;20438196;28;19930;-59
2023/08/24 09:56:23;;;;;;;;;;;;;;;22.92;75.47;101633.97;20458927;28;19989;-58
2023/08/24 10:06:47;;;;;;;;;;;;;;;23.24;74.78;101596.56;20468580;28;19931;-60
2023/08/24 10:17:10;;;;;;;;;;;;;;;23.47;75.61;101593.16;20485357;28;20040;-60
2023/08/24 10:27:34;;;;;;;;;;;;;;;23.55;75.77;101578.44;20432578;28;19935;-60
2023/08/24 10:37:58;;;;;;;;;;;;;;;23.83;72.51;101561.41;20430898;28;20479;-61
2023/08/24 10:48:19;;;;;;;;;;;;;;;23.97;74.45;101574.47;20442829;28;19930;-61
2023/08/24 10:58:42;;;;;;;;;;;;;;;24.14;73.85;101542.34;20426818;28;19966;-61
2023/08/24 11:09:17;;;;;;;;;;;;;;;24.27;73.03;101521.09;20439029;28;19950;-61
2023/08/24 11:19:46;;;;;;;;;;;;;;;24.42;73.46;101515.47;20412426;28;19927;-61
2023/08/24 11:30:08;;;;;;;;;;;;;;;24.51;71.60;101472.41;20435750;28;19950;-61
2023/08/24 11:40:29;;;;;;;;;;;;;;;25.01;70.40;101465.81;20441573;28;19931;-61
2023/08/24 11:50:51;;;;;;;;;;;;;;;25.03;71.81;101463.03;20425104;28;20011;-60
2023/08/24 12:01:13;;;;;;;;;;;;;;;25.29;70.65;101443.22;20426288;28;19935;-60
2023/08/24 12:11:38;;;;;;;;;;;;;;;25.13;71.87;101416.28;20427263;28;20299;-60
2023/08/24 12:22:00;;;;;;;;;;;;;;;25.16;72.70;101402.78;20424308;28;19937;-61
2023/08/24 12:32:26;;;;;;;;;;;;;;;25.12;71.56;101388.13;20421137;28;20064;-60
2023/08/24 12:42:48;;;;;;;;;;;;;;;25.25;70.43;101388.78;20456816;28;19949;-61
2023/08/24 12:53:10;;;;;;;;;;;;;;;25.26;71.94;101401.06;20450434;28;19934;-61
2023/08/24 13:03:32;;;;;;;;;;;;;;;25.37;68.51;101393.06;20448719;28;19945;-61
2023/08/24 13:13:53;;;;;;;;;;;;;;;25.48;69.12;101382.44;20448017;28;19938;-61
2023/08/24 13:24:14;;;;;;;;;;;;;;;25.54;67.99;101368.69;20490156;28;19957;-61
2023/08/24 13:34:36;;;;;;;;;;;;;;;25.54;69.03;101352.78;20449029;28;20060;-61
2023/08/24 13:44:58;;;;;;;;;;;;;;;25.49;69.71;101325.81;20442870;28;20016;-60
2023/08/24 13:55:19;;;;;;;;;;;;;;;25.60;69.60;101312.50;20445024;28;19934;-61
2023/08/24 14:05:40;;;;;;;;;;;;;;;25.66;70.15;101304.00;20436285;28;20291;-59
2023/08/24 14:16:02;;;;;;;;;;;;;;;25.60;69.91;101310.66;20435487;28;21974;-61
2023/08/24 14:26:25;;;;;;;;;;;;;;;25.47;70.50;101298.59;20448549;28;21024;-61
2023/08/24 14:36:47;;;;;;;;;;;;;;;25.32;70.41;101291.91;20441635;28;21809;-61
2023/08/24 14:47:08;;;;;;;;;;;;;;;25.38;69.44;101286.13;20432284;28;19926;-61
2023/08/24 14:57:30;;;;;;;;;;;;;;;25.19;71.02;101289.44;20440614;28;20282;-61
2023/08/24 15:07:52;;;;;;;;;;;;;;;25.10;71.52;101265.53;20425534;28;19967;-61
2023/08/24 15:18:14;;;;;;;;;;;;;;;25.02;71.73;101254.72;20437143;28;19931;-61
2023/08/24 15:28:36;;;;;;;;;;;;;;;24.99;71.84;101255.81;20442479;28;19931;-62
2023/08/24 15:38:58;;;;;;;;;;;;;;;24.95;71.74;101232.34;20444866;28;19930;-60
2023/08/24 15:49:19;;;;;;;;;;;;;;;24.89;71.65;101223.97;20433625;28;19937;-60
2023/08/24 15:59:41;;;;;;;;;;;;;;;24.85;72.20;101208.47;20426982;28;20409;-63
2023/08/24 16:10:05;;;;;;;;;;;;;;;24.84;72.41;101197.03;20419910;28;20533;-60
2023/08/24 16:20:26;;;;;;;;;;;;;;;24.78;73.65;101179.00;20417278;28;20039;-60
2023/08/24 16:30:48;;;;;;;;;;;;;;;24.62;73.95;101160.03;20427278;28;19934;-60
2023/08/24 16:41:10;;;;;;;;;;;;;;;24.57;75.44;101140.19;20424553;28;19930;-60
2023/08/24 16:51:31;;;;;;;;;;;;;;;24.50;75.89;101126.63;20458022;28;19945;-61
2023/08/24 17:01:52;;;;;;;;;;;;;;;24.47;75.70;101100.41;20420293;28;19938;-61
2023/08/24 17:12:14;;;;;;;;;;;;;;;24.42;75.40;101092.03;20435252;28;19931;-61
2023/08/24 17:22:36;;;;;;;;;;;;;;;24.45;75.36;101073.25;20411374;28;19934;-61
2023/08/24 17:32:57;;;;;;;;;;;;;;;24.38;75.94;101087.97;20438597;28;19941;-61
2023/08/24 17:43:20;;;;;;;;;;;;;;;24.18;78.70;101066.75;20442160;28;20002;-61
2023/08/24 17:53:41;;;;;;;;;;;;;;;24.03;79.28;101060.13;20452789;28;19927;-60
2023/08/24 18:04:03;;;;;;;;;;;;;;;23.92;79.34;101055.66;20439186;28;19934;-60
2023/08/24 18:14:25;;;;;;;;;;;;;;;23.89;79.66;101053.25;20441317;28;20012;-60
2023/08/24 18:24:46;;;;;;;;;;;;;;;23.84;79.41;101053.63;20447860;28;19927;-60
2023/08/24 18:35:08;;;;;;;;;;;;;;;23.80;79.58;101035.50;20462438;28;19941;-60
2023/08/24 18:45:29;;;;;;;;;;;;;;;23.76;80.35;101026.13;20445020;28;19934;-60
2023/08/24 18:55:54;;;;;;;;;;;;;;;23.72;79.80;101008.84;20431127;28;20166;-60
2023/08/24 19:06:16;;;;;;;;;;;;;;;23.68;80.09;101000.34;20449658;28;20071;-60
2023/08/24 19:16:49;;;;;;;;;;;;;;;23.65;80.27;100982.09;20470015;28;20393;-60
2023/08/24 19:27:10;;;;;;;;;;;;;;;23.59;79.12;100973.81;20435899;28;20621;-61
2023/08/24 19:37:32;;;;;;;;;;;;;;;23.51;79.50;100970.97;20426906;28;19931;-61
2023/08/24 19:47:53;;;;;;;;;;;;;;;23.48;79.96;100976.47;20441278;28;19934;-61
2023/08/24 19:58:15;;;;;;;;;;;;;;;23.32;80.57;100960.19;20434138;28;20003;-62
2023/08/24 20:08:37;;;;;;;;;;;;;;;23.20;81.51;100943.53;20429733;28;19938;-61
2023/08/24 20:18:58;;;;;;;;;;;;;;;23.10;81.29;100947.84;20415399;28;19938;-61
2023/08/24 20:29:20;;;;;;;;;;;;;;;22.98;81.86;100925.91;20443049;28;19934;-61
2023/08/24 20:39:41;;;;;;;;;;;;;;;22.88;82.01;100946.09;20449802;28;19927;-62
2023/08/24 20:50:04;;;;;;;;;;;;;;;22.74;82.68;100935.78;20439673;28;19930;-61
2023/08/24 21:00:25;;;;;;;;;;;;;;;22.62;83.45;100923.53;20444050;22;19935;-62
2023/08/24 21:10:47;;;;;;;;;;;;;;;22.53;83.75;100916.31;20384993;28;19954;-62
2023/08/24 21:21:10;;;;;;;;;;;;;;;22.45;84.01;100931.06;20364257;28;19934;-62
2023/08/24 21:31:32;;;;;;;;;;;;;;;22.36;83.51;100927.34;20375550;28;19931;-62
2023/08/24 21:41:54;;;;;;;;;;;;;;;22.30;84.00;100938.38;20368689;28;20312;-62
2023/08/24 21:52:17;;;;;;;;;;;;;;;22.23;84.69;100916.03;20357723;28;19926;-62
2023/08/24 22:02:40;;;;;;;;;;;;;;;22.14;84.66;100906.19;20343654;28;19926;-62
2023/08/24 22:13:02;;;;;;;;;;;;;;;22.07;85.25;100905.00;20369870;28;20037;-62
2023/08/24 22:23:23;;;;;;;;;;;;;;;22.11;85.50;100921.41;20369778;28;19931;-63
2023/08/24 22:33:45;;;;;;;;;;;;;;;22.14;84.66;100922.03;20374512;28;19934;-59
2023/08/24 22:44:07;;;;;;;;;;;;;;;22.15;84.97;100897.34;20368963;28;19928;-60
2023/08/24 22:54:29;;;;;;;;;;;;;;;22.11;84.85;100877.44;20370387;28;19934;-59
2023/08/24 23:04:51;;;;;;;;;;;;;;;22.16;85.10;100893.75;20359234;28;20387;-60
2023/08/24 23:15:13;;;;;;;;;;;;;;;22.19;85.12;100904.06;20376613;28;19926;-60
2023/08/24 23:25:35;;;;;;;;;;;;;;;22.09;86.44;100903.09;20375142;28;19946;-60
2023/08/24 23:35:56;;;;;;;;;;;;;;;22.02;86.48;100880.78;20368609;28;19938;-60
2023/08/24 23:46:18;;;;;;;;;;;;;;;21.96;86.29;100876.84;20376549;28;19934;-59
2023/08/24 23:56:39;;;;;;;;;;;;;;;21.90;87.02;100881.75;20369886;28;19989;-60
